Airfield :
LOGIN :

Register | Disclaimer

   EN    FR    IT 

 










Legend :    VFR   Marginal VFR   IFR   Intensive IFR   Very Intensive IFR
Visi :
Ceiling :
>= 8 km
>= 3000ft
5 to 8 km
1000 to 3000 ft
1500m to 5 km
500 to 1000 ft
800 to 1500m
200 to 500 ft
< 800m
< 200 ft
Symbols :   Thunderstorms  Fog  Heavy snow  Heavy precipitations  Wind > 20 kt
SIGMETs :     Misc.  Thunderstorms  Icing  Turbulence  Mountain Waves  Volcanic Ashes






- Airport Elevation : 202 ft
- IATA code : SQZ


EGXP - RAF Scampton

CURRENT METAR :
  • 150750Z 26008KT 8000 -DZ OVC002 10/10 Q1002 RMK AMB

EXPIRED METARs :
  • 150650Z 28008KT 3000 DZ OVC002 10/10 Q1001 RMK AMB
  • 150550Z AUTO 30010KT 3200 // OVC002/// 09/09 Q1000

TAF TAF EGXP
Valid from the 15 at 09:00 until the 15 at 17:00 UTC


150755Z 1509/1517 26007KT 9999 BKN004
PROB30
TEMPO 1509/1510 3000 -DZ BKN002
BECMG 1510/1512 BKN010
BECMG 1512/1515 BKN015
PROB30
TEMPO 1515/1517 FEW015



MET'MAP, your aeronautical weather chart ! - Copyright ORBIFLY December 2007 - Disclaimer

ORBIFLY MET'MAP TEAM :

Programming & Development : Alexandra Zaïnal
Concept & Development : Baudouin d'Aumeries
Co-Development & Prog : Marc-Olivier Méhu
Technical & hardware support : Manuel Goepfert

Contact : metmap@orbifly.com




SOURCES & CREDITS :

   NOAA